createdAt,value
2018-02-07T00:01:01.532Z,60.30
2018-02-07T00:03:29.118Z,59.83
2018-02-07T00:05:57.434Z,59.20
2018-02-07T00:08:24.931Z,66.32
2018-02-07T00:10:52.459Z,69.30
2018-02-07T00:13:19.955Z,57.60
2018-02-07T00:15:47.483Z,52.60
2018-02-07T00:18:14.981Z,64.00
2018-02-07T00:20:42.484Z,57.65
2018-02-07T00:23:09.977Z,67.85
2018-02-07T00:25:37.541Z,51.50
2018-02-07T00:28:05.054Z,52.13
2018-02-07T00:30:32.579Z,63.65
2018-02-07T00:33:00.075Z,62.58
2018-02-07T00:35:30.622Z,57.30
2018-02-07T00:37:58.214Z,54.45
2018-02-07T00:40:25.893Z,72.50
2018-02-07T00:42:53.559Z,52.78
2018-02-07T00:45:21.910Z,67.85
2018-02-07T00:47:50.671Z,61.50
2018-02-07T00:50:18.248Z,61.78
2018-02-07T00:52:45.882Z,65.65
2018-02-07T00:55:13.494Z,66.97
2018-02-07T00:57:41.186Z,55.80
2018-02-07T01:00:10.390Z,55.55
2018-02-07T01:02:37.939Z,71.95
2018-02-07T01:05:05.445Z,60.63
2018-02-07T01:07:33.853Z,72.10
2018-02-07T01:10:01.497Z,63.47
2018-02-07T01:12:30.050Z,72.22
2018-02-07T01:14:57.650Z,64.93
2018-02-07T01:17:25.348Z,74.57
2018-02-07T01:19:52.936Z,70.97
2018-02-07T01:22:20.551Z,60.00
2018-02-07T01:24:48.115Z,67.90
2018-02-07T01:27:15.708Z,63.90
2018-02-07T01:29:43.254Z,68.00
2018-02-07T01:32:10.858Z,65.72
2018-02-07T01:34:38.406Z,76.18
2018-02-07T01:37:06.714Z,72.45
2018-02-07T01:39:34.291Z,57.88
2018-02-07T01:42:01.855Z,67.30
2018-02-07T01:44:29.384Z,59.05
2018-02-07T01:46:56.919Z,63.25
2018-02-07T01:49:24.386Z,63.42
2018-02-07T01:51:51.899Z,63.47
2018-02-07T01:54:19.447Z,70.37
2018-02-07T01:56:46.948Z,76.40
2018-02-07T01:59:14.456Z,78.28
2018-02-07T02:01:42.622Z,70.37
2018-02-07T02:04:10.230Z,76.65
2018-02-07T02:06:38.523Z,67.62
2018-02-07T02:09:06.068Z,69.22
2018-02-07T02:11:33.589Z,71.97
2018-02-07T02:14:01.090Z,57.65
2018-02-07T02:16:28.619Z,54.28
2018-02-07T02:18:56.134Z,52.65
2018-02-07T02:21:23.657Z,63.87
2018-02-07T02:23:51.931Z,67.70
2018-02-07T02:26:20.199Z,63.55
2018-02-07T02:28:48.505Z,66.47
2018-02-07T02:31:16.069Z,67.05
2018-02-07T02:33:43.604Z,56.63
2018-02-07T02:36:23.626Z,75.68
2018-02-07T02:38:51.113Z,66.93
2018-02-07T02:41:19.368Z,69.28
2018-02-07T02:43:46.861Z,67.53
2018-02-07T02:46:14.361Z,62.05
2018-02-07T02:48:41.925Z,56.58
2018-02-07T02:51:09.491Z,57.25
2018-02-07T02:53:37.040Z,59.85
2018-02-07T02:56:04.600Z,68.50
2018-02-07T02:58:32.320Z,66.62
2018-02-07T03:00:59.814Z,68.85
2018-02-07T03:03:27.320Z,65.50
2018-02-07T03:05:54.832Z,59.17
2018-02-07T03:08:22.327Z,62.22
2018-02-07T03:10:50.587Z,70.60
2018-02-07T03:13:18.145Z,56.85
2018-02-07T03:15:45.694Z,65.20
2018-02-07T03:18:13.214Z,59.15
2018-02-07T03:20:40.748Z,57.35
2018-02-07T03:23:08.317Z,68.35
2018-02-07T03:25:36.605Z,62.62
2018-02-07T03:28:04.126Z,74.32
2018-02-07T03:30:31.684Z,67.18
2018-02-07T03:32:59.167Z,51.42
2018-02-07T03:35:27.262Z,61.63
2018-02-07T03:37:54.755Z,70.28
2018-02-07T03:40:22.229Z,64.20
2018-02-07T03:42:49.739Z,62.15
2018-02-07T03:45:17.232Z,55.03
2018-02-07T03:47:44.742Z,64.30
2018-02-07T03:50:12.261Z,70.68
2018-02-07T03:52:39.895Z,75.15
2018-02-07T03:55:07.399Z,75.10
2018-02-07T03:57:34.882Z,64.95
2018-02-07T04:00:02.417Z,63.92
2018-02-07T04:02:30.680Z,61.42
2018-02-07T04:04:58.944Z,56.08
2018-02-07T04:07:26.459Z,57.67
2018-02-07T04:09:53.974Z,55.40
2018-02-07T04:12:21.474Z,59.97
2018-02-07T04:14:48.974Z,50.90
2018-02-07T04:17:21.332Z,56.63
2018-02-07T04:19:48.841Z,63.08
2018-02-07T04:22:16.360Z,67.75
2018-02-07T04:24:43.862Z,63.53
2018-02-07T04:27:11.376Z,65.85
2018-02-07T04:29:38.840Z,60.00
2018-02-07T04:32:06.356Z,66.15
2018-02-07T04:34:33.849Z,72.20
2018-02-07T04:37:01.391Z,68.37
2018-02-07T04:39:28.874Z,65.35
2018-02-07T04:41:57.158Z,76.57
2018-02-07T04:44:25.420Z,81.97
2018-02-07T04:46:52.923Z,74.25
2018-02-07T04:49:20.448Z,72.10
2018-02-07T04:51:47.967Z,53.22
2018-02-07T04:54:15.463Z,56.22
2018-02-07T04:56:43.738Z,66.57
2018-02-07T04:59:11.986Z,56.03
2018-02-07T05:01:39.505Z,54.05
2018-02-07T05:04:07.005Z,64.07
2018-02-07T05:06:34.512Z,70.90
2018-02-07T05:09:02.017Z,61.20
2018-02-07T05:11:29.495Z,65.28
2018-02-07T05:13:56.982Z,82.20
2018-02-07T05:16:24.493Z,71.37
2018-02-07T05:18:52.308Z,65.05
2018-02-07T05:21:19.824Z,63.17
2018-02-07T05:23:47.311Z,62.50
2018-02-07T05:26:15.541Z,68.70
2018-02-07T05:28:43.053Z,61.13
2018-02-07T05:31:10.562Z,69.07
2018-02-07T05:33:39.528Z,74.30
2018-02-07T05:36:13.849Z,70.80
2018-02-07T05:38:41.403Z,69.80
2018-02-07T05:41:09.883Z,58.70
2018-02-07T05:43:37.429Z,60.03
2018-02-07T05:46:05.688Z,56.45
2018-02-07T05:48:33.176Z,47.80
2018-02-07T05:51:00.669Z,45.33
2018-02-07T05:53:28.168Z,51.20
2018-02-07T05:55:56.433Z,55.25
2018-02-07T05:58:23.962Z,57.53
2018-02-07T06:00:51.472Z,63.90
2018-02-07T06:03:18.978Z,61.45
2018-02-07T06:05:46.497Z,54.22
2018-02-07T06:08:14.003Z,65.05
2018-02-07T06:10:42.287Z,57.25
2018-02-07T06:13:09.850Z,68.45
2018-02-07T06:15:37.334Z,81.30
2018-02-07T06:18:04.828Z,68.97
2018-02-07T06:20:32.337Z,61.53
2018-02-07T06:23:00.842Z,74.93
2018-02-07T06:25:28.364Z,72.05
2018-02-07T06:27:56.644Z,75.18
2018-02-07T06:30:24.166Z,66.93
2018-02-07T06:32:51.664Z,64.45
2018-02-07T06:35:19.934Z,70.10
2018-02-07T06:37:48.218Z,66.95
2018-02-07T06:40:15.709Z,65.93
2018-02-07T06:42:43.228Z,73.45
2018-02-07T06:45:10.782Z,79.40
2018-02-07T06:47:39.036Z,82.80
2018-02-07T06:50:06.546Z,68.12
2018-02-07T06:52:34.105Z,66.07
2018-02-07T06:55:01.533Z,70.75
2018-02-07T06:57:29.039Z,65.30
2018-02-07T06:59:56.542Z,62.80
2018-02-07T07:02:24.793Z,61.95
2018-02-07T07:04:52.274Z,58.83
2018-02-07T07:07:20.600Z,69.07
2018-02-07T07:09:48.087Z,63.05
2018-02-07T07:12:15.632Z,68.45
2018-02-07T07:14:43.146Z,66.00
2018-02-07T07:17:10.695Z,71.35
2018-02-07T07:19:38.191Z,77.82
2018-02-07T07:22:05.674Z,62.80
2018-02-07T07:24:33.192Z,56.30
2018-02-07T07:27:00.694Z,80.18
2018-02-07T07:29:28.175Z,68.37
2018-02-07T07:31:56.675Z,65.40
2018-02-07T07:34:24.182Z,61.22
2018-02-07T07:36:51.691Z,65.57
2018-02-07T07:39:19.178Z,63.65
2018-02-07T07:41:46.698Z,60.65
2018-02-07T07:44:14.198Z,53.33
2018-02-07T07:46:41.697Z,54.55
2018-02-07T07:49:10.016Z,69.85
2018-02-07T07:51:37.541Z,62.30
2018-02-07T07:54:05.044Z,53.63
2018-02-07T07:56:32.573Z,52.13
2018-02-07T07:59:00.095Z,63.55
2018-02-07T08:01:28.504Z,64.03
2018-02-07T08:03:56.819Z,63.15
2018-02-07T08:06:24.303Z,60.08
2018-02-07T08:08:51.806Z,61.40
2018-02-07T08:11:19.303Z,60.20
2018-02-07T08:13:46.812Z,62.03
2018-02-07T08:16:14.411Z,64.47
2018-02-07T08:18:41.968Z,59.97
2018-02-07T08:21:09.558Z,55.87
2018-02-07T08:23:37.874Z,56.57
2018-02-07T08:26:05.386Z,57.70
2018-02-07T08:28:32.953Z,53.07
2018-02-07T08:31:01.252Z,55.83
2018-02-07T08:33:30.481Z,60.27
2018-02-07T08:35:58.016Z,54.40
2018-02-07T08:38:26.268Z,49.47
2018-02-07T08:40:53.783Z,65.87
2018-02-07T08:43:21.286Z,58.60
2018-02-07T08:45:49.564Z,54.97
2018-02-07T08:48:17.069Z,60.20
2018-02-07T08:50:44.567Z,61.97
2018-02-07T08:53:12.095Z,58.20
2018-02-07T08:55:39.624Z,57.53
2018-02-07T08:58:07.123Z,58.00
2018-02-07T09:00:34.780Z,55.30
2018-02-07T09:03:02.324Z,50.77
2018-02-07T09:05:39.047Z,56.03
2018-02-07T09:08:07.846Z,54.63
2018-02-07T09:10:36.268Z,59.77
2018-02-07T09:13:03.780Z,58.23
2018-02-07T09:15:31.315Z,62.50
2018-02-07T09:17:58.818Z,56.13
2018-02-07T09:20:26.308Z,54.43
2018-02-07T09:22:53.834Z,58.67
2018-02-07T09:25:21.356Z,53.50
2018-02-07T09:27:48.872Z,62.77
2018-02-07T09:32:50.201Z,62.03
2018-02-07T09:35:18.510Z,56.50
2018-02-07T09:37:46.027Z,58.17
2018-02-07T09:40:13.520Z,65.00
2018-02-07T09:42:41.829Z,57.87
2018-02-07T09:45:09.354Z,52.23
2018-02-07T09:47:36.864Z,57.13
2018-02-07T09:50:04.421Z,58.57
2018-02-07T09:52:31.947Z,51.40
2018-02-07T09:54:59.600Z,49.53
2018-02-07T10:00:01.723Z,61.17
2018-02-07T10:02:29.296Z,59.53
2018-02-07T10:04:57.618Z,54.03
2018-02-07T10:07:25.121Z,57.30
2018-02-07T10:09:52.653Z,55.10
2018-02-07T10:12:20.160Z,43.83
2018-02-07T10:14:47.656Z,59.67
2018-02-07T10:17:15.149Z,64.80
2018-02-07T10:19:42.850Z,57.90
2018-02-07T10:22:11.468Z,48.10
2018-02-07T10:24:39.019Z,61.43
2018-02-07T10:27:06.678Z,53.80
2018-02-07T10:29:34.261Z,53.57
2018-02-07T10:32:02.578Z,50.73
2018-02-07T10:34:30.160Z,48.27
2018-02-07T10:36:58.428Z,47.70
2018-02-07T10:39:25.959Z,50.23
2018-02-07T10:41:53.481Z,56.23
2018-02-07T10:44:21.007Z,54.13
2018-02-07T10:46:48.571Z,53.80
2018-02-07T10:49:16.106Z,74.57
2018-02-07T10:51:43.625Z,53.67
2018-02-07T10:54:11.169Z,53.43
2018-02-07T10:56:38.685Z,48.07
2018-02-07T10:59:06.233Z,60.83
2018-02-07T11:01:34.510Z,54.57
2018-02-07T11:04:02.007Z,56.50
2018-02-07T11:06:29.542Z,51.90
2018-02-07T11:08:57.090Z,53.67
2018-02-07T11:11:24.609Z,56.13
2018-02-07T11:13:52.107Z,56.03
2018-02-07T11:16:19.595Z,52.93
2018-02-07T11:18:47.103Z,57.50
2018-02-07T11:21:15.369Z,47.03
2018-02-07T11:23:42.853Z,53.20
2018-02-07T11:26:10.353Z,52.83
2018-02-07T11:28:37.896Z,50.50
2018-02-07T11:31:05.382Z,60.50
2018-02-07T11:33:32.885Z,48.17
2018-02-07T11:36:00.388Z,56.00
2018-02-07T11:38:27.891Z,52.97
2018-02-07T11:40:56.197Z,46.50
2018-02-07T11:43:23.696Z,48.80
2018-02-07T11:45:52.032Z,50.93
2018-02-07T11:48:19.525Z,51.37
2018-02-07T11:50:47.044Z,48.37
2018-02-07T11:53:14.544Z,52.63
2018-02-07T11:55:42.111Z,54.00
2018-02-07T11:58:13.541Z,47.50
2018-02-07T12:00:41.076Z,46.13
2018-02-07T12:03:08.568Z,43.80
2018-02-07T12:05:36.087Z,45.93
2018-02-07T12:08:03.594Z,47.80
2018-02-07T12:10:31.081Z,42.33
2018-02-07T12:12:59.934Z,45.77
2018-02-07T12:15:27.450Z,46.50
2018-02-07T12:17:54.949Z,48.83
2018-02-07T12:20:22.469Z,47.67
2018-02-07T12:22:49.997Z,45.03
2018-02-07T12:25:18.291Z,49.77
2018-02-07T12:27:45.791Z,48.13
2018-02-07T12:30:13.320Z,49.00
2018-02-07T12:32:40.819Z,48.03
2018-02-07T12:35:08.354Z,47.97
2018-02-07T12:37:35.837Z,42.90
2018-02-07T12:40:03.343Z,49.47
2018-02-07T12:42:30.858Z,51.43
2018-02-07T12:44:59.287Z,61.43
2018-02-07T12:47:26.764Z,50.37
2018-02-07T12:49:54.271Z,44.60
2018-02-07T12:52:22.545Z,42.53
2018-02-07T12:54:50.051Z,44.50
2018-02-07T12:57:17.618Z,49.87
2018-02-07T12:59:45.106Z,43.57
2018-02-07T13:02:12.589Z,41.70
2018-02-07T13:04:40.083Z,46.03
2018-02-07T13:07:07.560Z,44.70
2018-02-07T13:09:35.127Z,42.17
2018-02-07T13:12:02.643Z,42.60
2018-02-07T13:14:30.162Z,46.30
2018-02-07T13:16:57.671Z,49.37
2018-02-07T13:19:25.180Z,50.67
2018-02-07T13:21:52.661Z,56.67
2018-02-07T13:24:20.167Z,47.73
2018-02-07T13:26:47.687Z,53.30
2018-02-07T13:29:15.227Z,59.57
2018-02-07T13:31:50.711Z,56.60
2018-02-07T13:34:25.341Z,52.03
2018-02-07T13:36:52.966Z,60.30
2018-02-07T13:39:23.787Z,55.93
2018-02-07T13:41:51.367Z,55.20
2018-02-07T13:44:18.947Z,59.40
2018-02-07T13:46:47.253Z,58.83
2018-02-07T13:49:14.788Z,59.40
2018-02-07T13:51:42.358Z,63.10
2018-02-07T13:54:09.895Z,57.57
2018-02-07T13:56:37.458Z,57.53
2018-02-07T13:59:04.975Z,61.83
2018-02-07T14:01:33.232Z,68.30
2018-02-07T14:04:00.709Z,57.57
2018-02-07T14:06:28.244Z,59.60
2018-02-07T14:08:55.753Z,62.20
2018-02-07T14:11:23.268Z,56.13
2018-02-07T14:13:50.797Z,67.20
2018-02-07T14:16:18.300Z,77.63
2018-02-07T14:18:46.557Z,64.77
2018-02-07T14:21:14.836Z,62.23
2018-02-07T14:23:43.187Z,60.80
2018-02-07T14:26:10.716Z,66.13
2018-02-07T14:28:38.214Z,64.63
2018-02-07T14:31:05.698Z,62.07
2018-02-07T14:33:34.686Z,67.17
2018-02-07T14:36:02.221Z,69.70
2018-02-07T14:38:30.019Z,65.77
2018-02-07T14:40:58.296Z,70.90
2018-02-07T14:43:25.828Z,65.53
2018-02-07T14:45:53.308Z,66.67
2018-02-07T14:48:20.837Z,67.20
2018-02-07T14:50:48.353Z,67.57
2018-02-07T14:53:15.859Z,65.30
2018-02-07T14:55:43.333Z,60.40
2018-02-07T14:58:10.856Z,58.63
2018-02-07T15:00:38.365Z,59.90
2018-02-07T15:03:05.881Z,67.17
2018-02-07T15:05:33.416Z,62.90
2018-02-07T15:08:00.912Z,75.43
2018-02-07T15:10:28.402Z,73.40
2018-02-07T15:12:55.915Z,79.13
2018-02-07T15:15:23.406Z,71.50
2018-02-07T15:17:50.930Z,63.60
2018-02-07T15:20:18.456Z,76.90
2018-02-07T15:22:45.982Z,72.57
2018-02-07T15:25:14.227Z,79.87
2018-02-07T15:27:43.228Z,74.83
2018-02-07T15:30:11.963Z,68.80
2018-02-07T15:32:39.450Z,70.80
2018-02-07T15:35:06.991Z,74.73
2018-02-07T15:37:34.487Z,73.67
2018-02-07T15:40:02.029Z,70.53
2018-02-07T15:42:37.823Z,71.27
2018-02-07T15:45:06.149Z,75.57
2018-02-07T15:47:33.693Z,77.47
2018-02-07T15:50:01.347Z,74.60
2018-02-07T15:52:28.856Z,69.77
2018-02-07T15:54:56.471Z,85.10
2018-02-07T15:57:24.787Z,82.03
2018-02-07T15:59:52.354Z,76.50
2018-02-07T16:02:19.915Z,86.60
2018-02-07T16:04:48.605Z,80.30
2018-02-07T16:07:16.134Z,82.63
2018-02-07T16:09:43.647Z,86.27
2018-02-07T16:12:11.222Z,85.93
2018-02-07T16:14:38.719Z,94.20
2018-02-07T16:17:08.817Z,93.87
2018-02-07T16:19:37.085Z,90.10
2018-02-07T16:22:05.356Z,125.57
2018-02-07T16:24:32.855Z,99.03
2018-02-07T16:27:00.343Z,94.67
2018-02-07T16:29:27.897Z,95.67
2018-02-07T16:31:55.432Z,112.90
2018-02-07T16:34:22.922Z,100.17
2018-02-07T16:36:50.432Z,99.83
2018-02-07T16:39:17.939Z,102.23
2018-02-07T16:41:45.441Z,99.80
2018-02-07T16:44:12.956Z,166.10
2018-02-07T16:46:40.479Z,97.23
2018-02-07T16:49:08.747Z,96.50
2018-02-07T16:51:36.308Z,102.67
2018-02-07T16:54:09.977Z,95.83
2018-02-07T16:56:37.514Z,109.77
2018-02-07T16:59:05.770Z,97.33
2018-02-07T17:01:34.025Z,102.83
2018-02-07T17:04:01.544Z,95.57
2018-02-07T17:06:29.025Z,97.17
2018-02-07T17:08:56.563Z,107.27
2018-02-07T17:11:24.962Z,102.73
2018-02-07T17:13:52.461Z,111.07
2018-02-07T17:16:20.102Z,107.87
2018-02-07T17:18:50.550Z,114.37
2018-02-07T17:21:18.097Z,105.60
2018-02-07T17:23:45.648Z,106.47
2018-02-07T17:26:14.002Z,110.90
2018-02-07T17:28:41.832Z,111.97
2018-02-07T17:31:09.377Z,104.87
2018-02-07T17:33:36.948Z,101.40
2018-02-07T17:36:04.490Z,104.07
2018-02-07T17:38:32.077Z,118.33
2018-02-07T17:41:00.030Z,99.10
2018-02-07T17:43:27.573Z,107.30
2018-02-07T17:45:55.105Z,113.67
2018-02-07T17:48:22.614Z,91.23
2018-02-07T17:50:50.149Z,108.33
2018-02-07T17:53:18.462Z,106.60
2018-02-07T17:55:46.084Z,109.93
2018-02-07T17:58:16.828Z,112.87
2018-02-07T18:00:47.681Z,105.63
2018-02-07T18:03:15.312Z,105.77
2018-02-07T18:05:44.684Z,118.03
2018-02-07T18:08:13.121Z,99.57
2018-02-07T18:10:43.021Z,109.57
2018-02-07T18:13:13.422Z,123.70
2018-02-07T18:15:41.093Z,93.13
2018-02-07T18:18:08.702Z,107.63
2018-02-07T18:20:36.447Z,100.20
2018-02-07T18:23:04.063Z,99.87
2018-02-07T18:25:33.629Z,112.80
2018-02-07T18:28:02.048Z,113.77
2018-02-07T18:30:30.125Z,100.93
2018-02-07T18:33:03.796Z,125.13
2018-02-07T18:35:31.440Z,116.33
2018-02-07T18:37:59.112Z,116.90
2018-02-07T18:40:26.717Z,117.47
2018-02-07T18:42:54.381Z,117.27
2018-02-07T18:45:22.831Z,105.30
2018-02-07T18:47:50.414Z,106.37
2018-02-07T18:50:18.802Z,110.63
2018-02-07T18:52:46.435Z,110.23
2018-02-07T18:55:15.589Z,119.00
2018-02-07T18:57:43.162Z,109.53
2018-02-07T19:00:10.701Z,103.37
2018-02-07T19:02:38.273Z,99.87
2018-02-07T19:05:05.812Z,109.57
2018-02-07T19:07:33.336Z,107.03
2018-02-07T19:10:01.653Z,99.00
2018-02-07T19:12:29.182Z,100.00
2018-02-07T19:14:56.701Z,105.97
2018-02-07T19:17:25.090Z,93.67
2018-02-07T19:19:52.619Z,99.40
2018-02-07T19:22:20.129Z,96.30
2018-02-07T19:24:48.457Z,105.80
2018-02-07T19:27:15.957Z,98.63
2018-02-07T19:29:45.127Z,98.47
2018-02-07T19:32:12.636Z,109.13
2018-02-07T19:34:40.139Z,111.63
2018-02-07T19:37:07.642Z,107.80
2018-02-07T19:39:35.145Z,116.23
2018-02-07T19:42:02.639Z,108.77
2018-02-07T19:44:30.948Z,96.47
2018-02-07T19:46:58.489Z,106.40
2018-02-07T19:49:26.805Z,107.73
2018-02-07T19:51:54.346Z,119.23
2018-02-07T19:54:21.863Z,103.07
2018-02-07T19:56:49.446Z,98.13
2018-02-07T19:59:16.983Z,111.30
2018-02-07T20:01:44.550Z,103.60
2018-02-07T20:04:12.825Z,112.87
2018-02-07T20:06:41.152Z,107.00
2018-02-07T20:09:08.722Z,101.03
2018-02-07T20:11:36.323Z,105.83
2018-02-07T20:14:04.596Z,107.90
2018-02-07T20:16:32.154Z,105.60
2018-02-07T20:19:01.146Z,118.67
2018-02-07T20:21:28.696Z,109.20
2018-02-07T20:23:56.490Z,100.37
2018-02-07T20:26:25.422Z,105.97
2018-02-07T20:28:53.816Z,106.07
2018-02-07T20:31:22.264Z,108.00
2018-02-07T20:33:49.853Z,114.77
2018-02-07T20:36:17.375Z,111.73
2018-02-07T20:38:44.894Z,125.27
2018-02-07T20:41:13.206Z,115.80
2018-02-07T20:43:40.739Z,114.10
2018-02-07T20:46:08.267Z,110.90
2018-02-07T20:48:35.792Z,129.43
2018-02-07T20:51:04.108Z,116.90
2018-02-07T20:53:31.621Z,123.53
2018-02-07T20:56:00.059Z,114.67
2018-02-07T20:58:27.663Z,126.47
2018-02-07T21:00:55.170Z,118.77
2018-02-07T21:03:22.682Z,117.67
2018-02-07T21:05:50.187Z,123.67
2018-02-07T21:08:17.695Z,112.70
2018-02-07T21:10:45.441Z,111.90
2018-02-07T21:13:12.992Z,104.20
2018-02-07T21:15:41.304Z,106.23
2018-02-07T21:18:08.837Z,106.77
2018-02-07T21:20:36.358Z,112.47
2018-02-07T21:23:03.878Z,96.07
2018-02-07T21:25:31.395Z,121.60
2018-02-07T21:27:58.993Z,107.80
2018-02-07T21:30:26.556Z,110.60
2018-02-07T21:32:54.245Z,108.07
2018-02-07T21:35:21.744Z,104.93
2018-02-07T21:37:49.273Z,94.40
2018-02-07T21:40:16.766Z,103.47
2018-02-07T21:42:45.518Z,105.90
2018-02-07T21:45:13.031Z,94.80
2018-02-07T21:47:40.553Z,104.83
2018-02-07T21:50:08.084Z,102.70
2018-02-07T21:52:35.664Z,88.13
2018-02-07T21:55:04.227Z,98.27
2018-02-07T21:57:31.726Z,99.03
2018-02-07T21:59:59.245Z,110.03
2018-02-07T22:02:26.735Z,91.00
2018-02-07T22:04:54.244Z,93.90
2018-02-07T22:07:21.785Z,92.13
2018-02-07T22:09:49.295Z,91.70
2018-02-07T22:12:16.801Z,99.13
2018-02-07T22:14:44.307Z,85.57
2018-02-07T22:17:11.821Z,93.60
2018-02-07T22:19:39.323Z,94.37
2018-02-07T22:22:06.871Z,99.83
2018-02-07T22:24:34.367Z,89.60
2018-02-07T22:27:01.881Z,91.77
2018-02-07T22:29:29.396Z,87.00
2018-02-07T22:31:57.882Z,88.03
2018-02-07T22:34:25.394Z,97.13
2018-02-07T22:36:52.935Z,94.50
2018-02-07T22:39:20.425Z,87.10
2018-02-07T22:41:47.935Z,88.90
2018-02-07T22:44:15.444Z,93.17
2018-02-07T22:46:42.948Z,87.57
2018-02-07T22:49:10.446Z,93.90
2018-02-07T22:51:37.992Z,97.00
2018-02-07T22:54:05.465Z,98.20
2018-02-07T22:56:32.975Z,86.43
2018-02-07T22:59:00.485Z,98.77
2018-02-07T23:01:27.976Z,91.93
2018-02-07T23:03:55.465Z,89.20
2018-02-07T23:06:22.971Z,91.13
2018-02-07T23:08:50.494Z,86.60
2018-02-07T23:11:18.019Z,98.93
2018-02-07T23:13:45.557Z,87.67
2018-02-07T23:16:13.165Z,93.40
2018-02-07T23:18:40.716Z,86.77
2018-02-07T23:21:08.252Z,95.03
2018-02-07T23:23:35.761Z,87.53
2018-02-07T23:26:03.261Z,88.40
2018-02-07T23:28:30.780Z,90.13
2018-02-07T23:30:59.053Z,92.67
2018-02-07T23:33:27.360Z,84.83
2018-02-07T23:35:54.869Z,90.93
2018-02-07T23:38:22.398Z,95.83
2018-02-07T23:40:49.882Z,85.00
2018-02-07T23:43:17.408Z,83.43
2018-02-07T23:45:44.923Z,88.93
2018-02-07T23:48:12.464Z,99.00
2018-02-07T23:50:40.812Z,89.93
2018-02-07T23:55:42.324Z,95.80
2018-02-07T23:58:09.834Z,91.40
